Holly Ridge, Mississippi
Current Conditions -  °F | °C
As of 8:53 AM on Monday 24 Nov 2014 (Local Time) from KGLH Reporting Station
Clear Clear  
Wind Chill: 11°   Ceiling: Unl
Heat Index: 11°   Visibility: 10mi
Dew Point:   Wind: 21mph
Humidity: 61%   Direction: 300°WNW
Pressure: 29.9"   Gusts: 25mph
Location:  33.45°N, 90.75°W
Report Text: KGLH 241453Z AUTO 30018G22KT 10SM CLR 11/04 A2990 RMK AO2 SLP132 T01110039 53039
Loading
Personal Weather Stations






























Interactive Weather Map New forecast layout! Learn more

10-Day Weather Forecast

Advertisements
Track Severe Weather on mobile